Time;durP1;ratioP1;P1;durP2;ratioP2;P2;SDS_P1;SDS_P2;PMS_P1;PMS_P2;Temp;Humidity;BMP_temperature;BMP_pressure;BME280_temperature;BME280_humidity;BME280_pressure;Samples;Min_cycle;Max_cycle;Signal;HPM_P1;HPM_P2
2022/10/12 00:01:11;;;;;;;12.27;4.87;;;;;;;6.21;96.94;102553.88;5073113;28;20429;-34
2022/10/12 00:03:37;;;;;;;7.77;3.47;;;;;;;6.19;97.00;102553.19;5073206;28;20534;-34
2022/10/12 00:06:14;;;;;;;8.27;4.00;;;;;;;6.16;97.21;102551.69;5073102;28;20310;-34
2022/10/12 00:08:41;;;;;;;8.70;4.03;;;;;;;6.02;97.79;102524.59;5073069;28;20039;-34
2022/10/12 00:11:10;;;;;;;8.63;3.53;;;;;;;6.06;97.20;102532.16;5073042;28;20495;-34
2022/10/12 00:13:35;;;;;;;7.32;3.45;;;;;;;6.10;97.08;102538.03;5054643;28;20029;-34
2022/10/12 00:16:05;;;;;;;10.47;4.13;;;;;;;6.08;97.70;102548.94;5072906;28;20024;-34
2022/10/12 00:18:32;;;;;;;8.15;3.35;;;;;;;6.05;97.64;102543.03;5073148;28;20419;-34
2022/10/12 00:21:12;;;;;;;12.88;4.03;;;;;;;6.03;97.96;102543.22;5072584;28;20111;-34
2022/10/12 00:23:38;;;;;;;10.32;3.92;;;;;;;5.99;97.70;102544.53;5072965;28;20098;-34
2022/10/12 00:26:06;;;;;;;9.43;4.13;;;;;;;5.98;97.28;102552.75;5072209;28;20032;-34
2022/10/12 00:28:32;;;;;;;11.18;3.97;;;;;;;5.96;97.58;102557.44;5072851;28;20028;-34
2022/10/12 00:30:57;;;;;;;7.75;4.30;;;;;;;5.95;98.25;102545.84;5072555;28;20476;-34
2022/10/12 00:33:23;;;;;;;7.03;4.33;;;;;;;5.94;97.86;102550.38;5073025;28;20032;-34
2022/10/12 00:35:49;;;;;;;10.90;4.40;;;;;;;5.87;97.88;102543.94;5072790;28;20103;-34
2022/10/12 00:38:14;;;;;;;7.75;3.90;;;;;;;5.87;98.07;102540.41;5073342;28;20303;-34
2022/10/12 00:40:39;;;;;;;10.60;4.03;;;;;;;5.93;97.42;102548.69;5072627;28;20078;-34
2022/10/12 00:43:24;;;;;;;11.60;4.37;;;;;;;5.94;98.47;102550.38;5073018;28;20422;-34
2022/10/12 00:45:49;;;;;;;9.05;4.03;;;;;;;5.81;97.67;102544.56;5072599;28;20063;-34
2022/10/12 00:48:15;;;;;;;10.73;4.10;;;;;;;5.89;97.97;102549.97;5073080;28;20032;-34
2022/10/12 00:50:40;;;;;;;10.57;4.78;;;;;;;5.86;98.19;102558.38;5072620;28;20049;-34
2022/10/12 00:53:14;;;;;;;8.23;4.13;;;;;;;5.88;98.09;102550.97;5072602;28;20036;-34
2022/10/12 00:55:47;;;;;;;8.65;4.68;;;;;;;5.89;98.51;102549.13;5073264;28;20083;-34
2022/10/12 00:58:13;;;;;;;7.70;3.65;;;;;;;5.85;98.40;102540.53;5072688;28;20037;-34
2022/10/12 01:00:39;;;;;;;8.23;4.13;;;;;;;5.92;98.59;102548.88;5072109;28;20025;-34
2022/10/12 01:03:06;;;;;;;;;;;;;;;6.07;98.02;102554.50;5072536;28;20028;-34
2022/10/12 01:05:31;;;;;;;5.55;3.63;;;;;;;5.97;97.63;102543.84;5072336;28;20358;-34
2022/10/12 01:07:59;;;;;;;7.13;3.93;;;;;;;6.01;98.94;102549.75;5072938;28;20103;-34
2022/10/12 01:10:24;;;;;;;11.48;3.83;;;;;;;5.99;98.59;102552.59;5072257;28;20295;-34
2022/10/12 01:12:50;;;;;;;9.03;3.60;;;;;;;5.92;98.64;102528.22;5054418;28;20171;-34
2022/10/12 01:15:16;;;;;;;10.13;4.57;;;;;;;5.99;98.84;102546.38;5072426;28;20028;-34
2022/10/12 01:18:14;;;;;;;9.43;3.97;;;;;;;5.98;99.58;102523.22;5072818;28;20457;-34
2022/10/12 01:20:48;;;;;;;;;;;;;;;6.15;98.14;102530.38;5072858;28;20428;-34
2022/10/12 01:23:16;;;;;;;6.63;3.97;;;;;;;5.99;98.94;102514.97;5072803;28;20375;-34
2022/10/12 01:26:08;;;;;;;7.38;3.58;;;;;;;5.93;99.08;102507.56;5072228;28;20028;-34
2022/10/12 01:28:47;;;;;;;5.95;3.63;;;;;;;6.04;99.62;102519.88;5072504;28;20020;-34
2022/10/12 01:31:20;;;;;;;9.23;3.85;;;;;;;5.98;98.83;102513.31;5072327;28;20519;-34
2022/10/12 01:33:54;;;;;;;7.75;3.70;;;;;;;5.93;99.17;102519.16;5072645;28;20073;-34
2022/10/12 01:36:29;;;;;;;9.45;4.15;;;;;;;5.90;99.64;102522.16;5072347;28;20058;-34
2022/10/12 01:39:01;;;;;;;7.03;3.55;;;;;;;5.93;99.71;102511.09;5074514;28;20082;-34
2022/10/12 01:41:38;;;;;;;5.90;3.65;;;;;;;5.91;99.57;102509.56;5075861;28;20051;-34
2022/10/12 01:44:03;;;;;;;;;;;;;;;6.06;98.87;102507.16;5076964;28;20032;-34
2022/10/12 01:46:29;;;;;;;10.13;4.57;;;;;;;5.84;98.84;102495.91;5075406;28;19908;-34
2022/10/12 01:48:57;;;;;;;11.57;4.67;;;;;;;5.90;100.00;102503.34;5057667;28;20033;-34
2022/10/12 01:51:52;;;;;;;6.43;3.90;;;;;;;5.94;100.00;102498.50;5075331;28;20033;-34
2022/10/12 01:54:50;;;;;;;8.02;3.88;;;;;;;5.98;99.81;102507.09;4974248;28;20066;-34
2022/10/12 01:57:30;;;;;;;9.70;4.22;;;;;;;5.94;99.91;102499.34;4974422;28;20033;-34
2022/10/12 02:00:04;;;;;;;7.70;3.88;;;;;;;5.97;100.00;102497.38;4974391;28;20106;-34
2022/10/12 02:02:48;;;;;;;9.85;4.18;;;;;;;5.98;100.00;102496.34;4974478;28;20030;-34
2022/10/12 02:05:19;;;;;;;10.32;3.83;;;;;;;5.92;99.33;102498.69;4974461;28;20060;-34
2022/10/12 02:07:52;;;;;;;12.52;4.22;;;;;;;5.83;100.00;102486.19;4974287;28;20126;-34
2022/10/12 02:10:29;;;;;;;8.80;4.70;;;;;;;5.92;99.62;102487.94;4974178;28;20118;-34
2022/10/12 02:12:59;;;;;;;11.55;4.53;;;;;;;5.82;99.98;102479.13;4974800;28;20062;-34
2022/10/12 02:15:26;;;;;;;9.85;4.57;;;;;;;5.84;99.00;102489.69;4974168;28;20117;-34
2022/10/12 02:17:52;;;;;;;8.68;4.25;;;;;;;5.86;100.00;102487.72;4974484;28;20047;-34
2022/10/12 02:20:19;;;;;;;;;;;;;;;5.97;99.37;102483.94;4974980;28;20034;-34
2022/10/12 02:22:49;;;;;;;10.07;3.90;;;;;;;5.73;99.51;102466.66;4993492;28;19913;-34
2022/10/12 02:25:17;;;;;;;8.57;4.20;;;;;;;5.78;99.58;102467.03;4993382;28;20353;-34
2022/10/12 02:27:48;;;;;;;9.18;3.97;;;;;;;5.83;100.00;102482.66;4993204;28;20034;-34
2022/10/12 02:30:14;;;;;;;8.70;4.18;;;;;;;5.82;99.82;102483.66;5000471;28;20057;-34
2022/10/12 02:32:53;;;;;;;10.00;4.17;;;;;;;5.83;100.00;102474.59;5075435;28;20067;-34
2022/10/12 02:35:34;;;;;;;7.00;4.07;;;;;;;5.78;99.52;102483.13;5075260;28;20075;-34
2022/10/12 02:38:08;;;;;;;8.90;4.13;;;;;;;5.70;100.00;102477.72;5075082;28;20082;-34
2022/10/12 02:40:43;;;;;;;8.98;4.18;;;;;;;5.70;99.96;102477.72;5074927;28;20028;-34
2022/10/12 02:43:31;;;;;;;9.07;3.53;;;;;;;5.67;99.92;102481.56;5074388;28;20035;-34
2022/10/12 02:45:58;;;;;;;10.40;4.45;;;;;;;5.65;100.00;102480.03;5074368;28;20107;-34
2022/10/12 02:48:24;;;;;;;8.73;3.95;;;;;;;5.63;99.96;102482.88;5074526;28;20145;-34
2022/10/12 02:50:54;;;;;;;8.23;4.25;;;;;;;5.56;99.87;102470.25;5074370;28;20033;-34
2022/10/12 02:53:21;;;;;;;9.02;4.65;;;;;;;5.57;100.00;102474.63;5075015;28;20025;-34
2022/10/12 02:55:49;;;;;;;9.27;4.57;;;;;;;5.55;100.00;102471.25;5074439;28;20167;-34
2022/10/12 02:58:15;;;;;;;9.27;4.25;;;;;;;5.45;99.63;102457.09;5074438;28;20029;-34
2022/10/12 03:00:40;;;;;;;5.93;3.80;;;;;;;5.47;99.96;102461.31;5074040;28;20047;-34
2022/10/12 03:03:05;;;;;;;7.67;3.60;;;;;;;5.50;99.46;102460.16;5074615;28;20039;-34
2022/10/12 03:05:30;;;;;;;9.80;3.90;;;;;;;5.43;99.02;102455.41;5074008;28;20028;-34
2022/10/12 03:07:56;;;;;;;6.47;3.70;;;;;;;5.41;99.18;102460.09;5056655;28;20027;-34
2022/10/12 03:10:21;;;;;;;5.57;3.23;;;;;;;5.38;99.70;102451.53;5074230;28;20403;-34
2022/10/12 03:12:46;;;;;;;8.57;3.93;;;;;;;5.41;100.00;102465.44;5074196;28;20040;-34
2022/10/12 03:15:12;;;;;;;5.57;3.40;;;;;;;5.41;99.60;102459.25;5074600;28;20043;-34
2022/10/12 03:17:37;;;;;;;10.00;3.93;;;;;;;5.35;99.80;102457.19;5073739;28;20025;-34
2022/10/12 03:20:02;;;;;;;9.97;4.03;;;;;;;5.34;99.99;102451.00;5073819;28;20153;-34
2022/10/12 03:22:28;;;;;;;6.22;4.10;;;;;;;5.24;99.98;102439.53;5074133;28;20495;-34
2022/10/12 03:24:53;;;;;;;9.97;5.03;;;;;;;5.28;99.25;102451.63;5074103;28;20469;-34
2022/10/12 03:27:18;;;;;;;8.23;3.93;;;;;;;5.23;99.79;102435.16;5073788;28;20025;-34
2022/10/12 03:29:44;;;;;;;8.57;3.80;;;;;;;5.19;99.62;102441.00;5073787;28;20485;-34
2022/10/12 03:32:09;;;;;;;6.17;3.30;;;;;;;5.20;99.66;102453.41;5056180;28;20189;-34
2022/10/12 03:34:34;;;;;;;6.83;3.60;;;;;;;5.21;99.83;102450.56;5073857;28;20043;-35
2022/10/12 03:37:00;;;;;;;6.37;3.50;;;;;;;5.02;98.49;102440.03;5074201;28;20030;-34
2022/10/12 03:39:25;;;;;;;6.17;3.30;;;;;;;5.11;99.50;102455.19;5073470;28;20361;-34
2022/10/12 03:41:50;;;;;;;6.97;3.67;;;;;;;5.06;100.00;102447.59;5073786;28;20020;-34
2022/10/12 03:44:15;;;;;;;6.17;3.40;;;;;;;5.07;99.66;102451.13;5073106;28;20469;-34
2022/10/12 03:46:41;;;;;;;7.90;4.17;;;;;;;5.05;100.00;102448.59;5073820;28;20064;-34
2022/10/12 03:49:06;;;;;;;6.60;3.80;;;;;;;5.05;99.54;102451.28;5073417;28;20036;-34
2022/10/12 03:51:31;;;;;;;8.73;3.87;;;;;;;5.04;100.00;102457.66;5073837;28;20029;-34
2022/10/12 03:53:57;;;;;;;7.63;3.70;;;;;;;5.03;100.00;102453.28;5073561;28;20033;-34
2022/10/12 03:56:22;;;;;;;6.67;3.60;;;;;;;5.04;99.69;102446.09;5074126;28;20492;-34
2022/10/12 03:58:47;;;;;;;9.17;4.27;;;;;;;4.95;100.00;102434.44;5073152;28;20107;-34
2022/10/12 04:01:12;;;;;;;9.17;4.00;;;;;;;4.91;99.45;102431.22;5072617;28;20096;-34
2022/10/12 04:03:38;;;;;;;8.93;4.10;;;;;;;4.96;99.96;102441.50;5073362;28;20046;-33
2022/10/12 04:06:03;;;;;;;9.70;4.13;;;;;;;4.86;98.91;102438.88;5073231;28;20474;-33
2022/10/12 04:08:29;;;;;;;8.43;3.90;;;;;;;4.87;99.26;102437.88;5073276;28;20112;-34
2022/10/12 04:10:55;;;;;;;7.18;3.83;;;;;;;4.75;98.79;102428.41;5073004;28;20027;-34
2022/10/12 04:13:20;;;;;;;9.85;4.78;;;;;;;4.82;99.20;102436.69;5072868;28;20112;-33
2022/10/12 04:15:46;;;;;;;8.32;3.70;;;;;;;4.76;98.91;102434.63;5072948;28;20107;-33
2022/10/12 04:18:11;;;;;;;5.17;3.93;;;;;;;4.74;99.77;102445.50;5073028;28;20423;-33
2022/10/12 04:20:37;;;;;;;8.68;4.15;;;;;;;4.72;100.00;102419.84;5072464;28;20453;-33
2022/10/12 04:23:02;;;;;;;6.60;3.97;;;;;;;4.72;99.10;102434.06;5072971;28;20485;-33
2022/10/12 04:25:27;;;;;;;7.27;4.47;;;;;;;4.66;99.57;102440.06;5072575;28;20094;-33
2022/10/12 04:27:53;;;;;;;7.13;4.03;;;;;;;4.61;100.00;102437.84;5073303;28;20032;-34
2022/10/12 04:30:18;;;;;;;8.00;4.50;;;;;;;4.65;100.00;102441.06;5072718;28;20491;-34
2022/10/12 04:32:43;;;;;;;8.37;4.37;;;;;;;4.58;100.00;102427.41;5072780;28;20119;-34
2022/10/12 04:35:09;;;;;;;9.30;4.77;;;;;;;4.60;100.00;102421.91;5072910;28;20064;-34
2022/10/12 04:37:35;;;;;;;8.77;4.50;;;;;;;4.58;99.84;102423.88;5054862;28;20123;-34
2022/10/12 04:40:00;;;;;;;7.43;3.87;;;;;;;4.58;98.47;102442.66;5072669;28;20040;-34
2022/10/12 04:42:25;;;;;;;9.03;4.10;;;;;;;4.52;97.50;102437.91;5073342;28;20445;-36
2022/10/12 04:44:51;;;;;;;6.63;3.80;;;;;;;4.38;97.37;102425.88;5072521;28;20059;-34
2022/10/12 04:47:16;;;;;;;9.87;4.80;;;;;;;4.36;97.96;102441.25;5073020;28;20025;-34
2022/10/12 04:49:41;;;;;;;8.70;4.20;;;;;;;4.30;97.71;102434.69;5072332;28;20029;-34
2022/10/12 04:52:07;;;;;;;10.73;4.87;;;;;;;4.30;98.11;102447.22;5072185;28;20028;-34
2022/10/12 04:54:32;;;;;;;9.20;4.63;;;;;;;4.32;99.70;102454.09;5072247;28;20127;-34
2022/10/12 04:56:58;;;;;;;8.50;4.00;;;;;;;4.25;98.78;102444.16;5072391;28;20028;-34
2022/10/12 04:59:23;;;;;;;10.30;4.60;;;;;;;4.34;99.26;102451.28;5072049;28;20456;-34
2022/10/12 05:01:48;;;;;;;9.83;4.63;;;;;;;4.30;100.00;102441.88;5072711;28;20024;-34
2022/10/12 05:04:14;;;;;;;10.30;4.67;;;;;;;4.36;100.00;102447.47;5072419;28;20529;-34
2022/10/12 05:06:39;;;;;;;15.15;5.22;;;;;;;4.44;100.00;102446.72;5072382;28;20602;-34
2022/10/12 05:09:05;;;;;;;10.13;4.73;;;;;;;4.38;100.00;102439.25;5073101;28;20075;-34
2022/10/12 05:11:30;;;;;;;11.30;5.50;;;;;;;4.31;100.00;102424.81;5072036;28;20400;-34
2022/10/12 05:13:55;;;;;;;11.67;5.10;;;;;;;4.34;99.83;102436.06;5075042;28;20024;-34
2022/10/12 05:16:21;;;;;;;9.53;4.63;;;;;;;4.35;100.00;102436.91;5076099;28;20074;-34
2022/10/12 05:18:46;;;;;;;8.80;4.47;;;;;;;4.36;100.00;102438.59;5076318;28;20031;-34
2022/10/12 05:21:12;;;;;;;11.75;5.00;;;;;;;4.39;100.00;102433.78;5076172;28;20028;-34
2022/10/12 05:23:37;;;;;;;8.70;4.50;;;;;;;4.44;100.00;102429.78;5076263;28;20484;-34
2022/10/12 05:26:03;;;;;;;10.83;4.90;;;;;;;4.42;100.00;102424.59;5076359;28;20067;-34
2022/10/12 05:28:28;;;;;;;8.70;4.65;;;;;;;4.47;100.00;102424.97;5076790;28;20092;-34
2022/10/12 05:30:53;;;;;;;9.03;4.43;;;;;;;4.45;100.00;102426.13;5075113;28;20024;-34
2022/10/12 05:33:18;;;;;;;10.83;5.17;;;;;;;4.44;100.00;102419.94;5075501;28;20499;-34
2022/10/12 05:35:44;;;;;;;7.67;4.53;;;;;;;4.42;100.00;102424.59;5075842;28;20031;-34
2022/10/12 05:38:10;;;;;;;6.35;4.60;;;;;;;4.42;100.00;102424.59;5076407;28;20017;-34
2022/10/12 05:40:35;;;;;;;9.10;5.63;;;;;;;4.38;100.00;102424.03;5075468;28;20028;-34
2022/10/12 05:43:01;;;;;;;11.17;5.23;;;;;;;4.34;100.00;102421.81;5058154;28;20051;-34
2022/10/12 05:45:26;;;;;;;13.17;5.30;;;;;;;4.25;100.00;102414.72;5057895;28;20028;-34
2022/10/12 05:47:51;;;;;;;10.73;5.40;;;;;;;4.28;100.00;102415.22;5076043;28;20028;-34
2022/10/12 05:50:16;;;;;;;15.23;5.43;;;;;;;4.28;100.00;102422.41;5058028;28;20029;-34
2022/10/12 05:52:42;;;;;;;9.57;4.87;;;;;;;4.25;100.00;102418.22;5075262;28;20396;-33
2022/10/12 05:55:08;;;;;;;10.47;5.23;;;;;;;4.28;100.00;102420.59;5075472;28;20060;-34
2022/10/12 05:57:33;;;;;;;9.45;5.30;;;;;;;4.31;100.00;102420.28;5075156;28;20024;-35
2022/10/12 05:59:59;;;;;;;11.63;5.17;;;;;;;4.34;100.00;102422.69;5057800;28;20147;-35
2022/10/12 06:02:24;;;;;;;12.57;5.43;;;;;;;4.37;100.00;102422.34;5075845;28;20337;-34
2022/10/12 06:04:49;;;;;;;8.23;5.40;;;;;;;4.40;100.00;102421.22;5075188;28;20500;-34
2022/10/12 06:07:15;;;;;;;9.17;4.63;;;;;;;4.47;100.00;102427.66;5075759;28;20028;-34
2022/10/12 06:09:40;;;;;;;9.18;4.90;;;;;;;4.46;100.00;102422.44;5075811;28;20024;-34
2022/10/12 06:12:06;;;;;;;8.63;5.00;;;;;;;4.50;100.00;102432.72;5075520;28;20031;-34
2022/10/12 06:14:32;;;;;;;8.23;4.72;;;;;;;4.43;100.00;102431.63;5075713;28;20119;-34
2022/10/12 06:16:57;;;;;;;12.87;5.50;;;;;;;4.50;100.00;102423.84;5075380;28;20055;-34
2022/10/12 06:19:22;;;;;;;9.20;4.72;;;;;;;4.49;100.00;102419.44;5075300;28;20078;-34
2022/10/12 06:21:48;;;;;;;9.60;5.10;;;;;;;4.57;100.00;102419.53;5075865;28;20028;-34
2022/10/12 06:24:13;;;;;;;11.60;4.93;;;;;;;4.62;100.00;102420.75;5074349;28;20052;-34
2022/10/12 06:26:38;;;;;;;10.77;5.63;;;;;;;4.62;100.00;102417.22;5075492;28;20031;-34
2022/10/12 06:29:04;;;;;;;7.80;4.77;;;;;;;4.65;100.00;102422.31;5075452;28;20111;-35
2022/10/12 06:31:31;;;;;;;11.40;5.90;;;;;;;4.70;100.00;102417.31;5075472;28;20028;-34
2022/10/12 06:33:56;;;;;;;8.20;4.78;;;;;;;4.76;100.00;102413.19;5075351;28;20057;-34
2022/10/12 06:36:22;;;;;;;11.45;5.63;;;;;;;4.86;100.00;102404.03;5074967;28;20453;-34
2022/10/12 06:38:48;;;;;;;9.57;5.30;;;;;;;4.87;100.00;102408.41;5075415;28;20040;-34
2022/10/12 06:41:13;;;;;;;13.20;5.43;;;;;;;4.93;100.00;102408.78;5074907;28;20029;-34
2022/10/12 06:43:39;;;;;;;11.67;5.47;;;;;;;4.94;100.00;102418.53;5074774;28;20040;-34
2022/10/12 06:46:04;;;;;;;11.73;5.80;;;;;;;4.95;100.00;102406.81;5074722;28;20036;-34
2022/10/12 06:48:29;;;;;;;11.07;5.60;;;;;;;5.11;100.00;102423.00;5074805;28;20082;-34
2022/10/12 06:50:55;;;;;;;10.30;5.20;;;;;;;5.14;100.00;102417.34;5074413;28;20150;-34
2022/10/12 06:53:21;;;;;;;11.07;5.80;;;;;;;5.21;100.00;102413.00;5074393;28;20024;-34
2022/10/12 06:55:46;;;;;;;14.57;5.57;;;;;;;5.31;100.00;102419.13;5074837;28;20064;-35
2022/10/12 06:58:12;;;;;;;16.20;6.40;;;;;;;5.38;100.00;102419.34;5074928;28;20128;-34
2022/10/12 07:00:37;;;;;;;12.93;6.20;;;;;;;5.47;100.00;102413.03;5074410;28;20089;-35
2022/10/12 07:03:03;;;;;;;11.60;6.00;;;;;;;5.53;100.00;102411.53;5056817;28;20025;-35
2022/10/12 07:05:28;;;;;;;14.18;6.70;;;;;;;5.57;100.00;102408.38;5074748;28;20298;-35
2022/10/12 07:07:54;;;;;;;13.25;6.22;;;;;;;5.59;100.00;102411.72;5074193;28;20102;-35
2022/10/12 07:10:19;;;;;;;13.73;6.83;;;;;;;5.58;100.00;102402.00;5074657;28;20021;-35
2022/10/12 07:12:44;;;;;;;11.50;5.90;;;;;;;5.78;100.00;102416.03;5074479;28;20051;-35
2022/10/12 07:15:10;;;;;;;13.23;6.30;;;;;;;5.78;100.00;102412.50;5074348;28;20108;-35
2022/10/12 07:17:35;;;;;;;12.73;6.13;;;;;;;5.86;100.00;102410.69;5074642;28;20504;-35
2022/10/12 07:20:01;;;;;;;16.30;7.00;;;;;;;5.91;100.00;102416.47;5074222;28;20289;-35
2022/10/12 07:22:26;;;;;;;11.45;5.82;;;;;;;5.94;100.00;102404.53;5075006;28;20032;-35
2022/10/12 07:24:52;;;;;;;14.63;7.23;;;;;;;5.99;100.00;102418.31;5066368;28;20024;-34
2022/10/12 07:27:17;;;;;;;12.70;7.27;;;;;;;5.93;100.00;102392.13;5074258;28;20028;-34
2022/10/12 07:29:42;;;;;;;13.33;6.87;;;;;;;6.02;100.00;102406.41;5073601;28;20047;-34
2022/10/12 07:32:08;;;;;;;14.57;6.57;;;;;;;6.06;100.00;102402.41;5073907;28;20032;-35
2022/10/12 07:34:33;;;;;;;17.37;7.20;;;;;;;6.05;100.00;102403.38;5073472;28;20037;-34
2022/10/12 07:36:58;;;;;;;14.00;6.97;;;;;;;6.04;100.00;102399.88;5073528;28;20035;-34
2022/10/12 07:39:24;;;;;;;10.77;6.80;;;;;;;6.10;100.00;102404.59;5055562;28;20383;-34
2022/10/12 07:41:51;;;;;;;12.52;6.47;;;;;;;6.14;100.00;102410.47;5074056;28;20020;-34
2022/10/12 07:44:17;;;;;;;14.77;7.72;;;;;;;6.15;100.00;102412.19;5073657;28;20054;-34
2022/10/12 07:46:42;;;;;;;10.80;6.68;;;;;;;6.18;100.00;102409.16;5073408;28;20028;-34
2022/10/12 07:49:11;;;;;;;14.27;7.13;;;;;;;6.27;100.00;102418.06;5073900;28;20090;-34
2022/10/12 07:51:36;;;;;;;17.20;8.43;;;;;;;6.32;100.00;102421.09;5073757;28;20024;-35
2022/10/12 07:54:01;;;;;;;14.50;7.27;;;;;;;6.35;100.00;102416.25;5073519;28;20491;-34
2022/10/12 07:56:27;;;;;;;13.20;7.73;;;;;;;6.32;100.00;102400.44;5073038;28;20056;-34
2022/10/12 07:58:54;;;;;;;14.00;7.80;;;;;;;6.53;100.00;102420.63;5074013;28;20028;-34
2022/10/12 08:01:21;;;;;;;15.45;7.75;;;;;;;6.56;100.00;102396.13;5073096;28;20024;-34
2022/10/12 08:03:47;;;;;;;15.13;8.50;;;;;;;6.63;100.00;102405.19;5073853;28;20024;-34
2022/10/12 08:06:14;;;;;;;;;;;;;;;6.87;100.00;102421.31;5073721;28;20028;-34
2022/10/12 08:08:40;;;;;;;14.52;7.65;;;;;;;6.88;100.00;102417.66;5074126;28;20292;-34
2022/10/12 08:11:07;;;;;;;15.25;9.43;;;;;;;6.76;100.00;102392.09;5073435;28;20377;-34
2022/10/12 08:13:32;;;;;;;;;;;;;;;7.03;100.00;102416.94;5073918;28;20067;-34
2022/10/12 08:15:59;;;;;;;14.45;8.70;;;;;;;7.07;100.00;102421.81;5073110;28;20345;-34
2022/10/12 08:18:24;;;;;;;;;;;;;;;7.20;100.00;102424.00;5073300;28;20115;-34
2022/10/12 08:20:49;;;;;;;16.67;10.50;;;;;;;7.25;100.00;102416.25;5073069;28;20011;-34
2022/10/12 08:23:14;;;;;;;19.07;10.80;;;;;;;7.40;100.00;102421.78;5073498;28;20052;-34
2022/10/12 08:25:40;;;;;;;16.23;10.20;;;;;;;7.51;100.00;102409.81;5073338;28;20483;-34
2022/10/12 08:28:05;;;;;;;17.33;10.07;;;;;;;7.56;100.00;102402.06;5072800;28;20433;-34
2022/10/12 08:30:32;;;;;;;16.67;9.88;;;;;;;7.69;100.00;102410.44;5072916;28;20097;-34
2022/10/12 08:32:58;;;;;;;20.40;10.77;;;;;;;7.75;100.00;102407.88;5055006;28;20032;-34
2022/10/12 08:35:23;;;;;;;20.27;10.43;;;;;;;7.88;100.00;102404.63;5072959;28;20035;-34
2022/10/12 08:37:48;;;;;;;17.17;10.60;;;;;;;7.94;100.00;102395.84;5073500;28;20780;-34
2022/10/12 08:40:36;;;;;;;22.47;11.57;;;;;;;8.10;100.00;102394.94;5072631;28;20419;-34
2022/10/12 08:43:14;;;;;;;21.38;11.68;;;;;;;8.24;100.00;102398.72;5073136;28;20028;-34
2022/10/12 08:45:52;;;;;;;20.42;11.80;;;;;;;8.36;99.35;102400.03;5072556;28;20116;-34
2022/10/12 08:48:25;;;;;;;20.73;12.05;;;;;;;8.48;99.47;102403.13;5072475;28;20103;-34
2022/10/12 08:51:14;;;;;;;19.40;10.07;;;;;;;8.63;98.84;102390.56;5073378;28;20029;-35
2022/10/12 08:53:58;;;;;;;23.35;13.13;;;;;;;8.72;99.12;102402.13;5055429;28;20376;-35
2022/10/12 08:56:23;;;;;;;22.67;12.65;;;;;;;8.73;97.78;102393.00;5073697;28;20067;-35
2022/10/12 08:58:51;;;;;;;26.13;13.10;;;;;;;8.86;97.28;102397.81;5073038;28;20028;-35
2022/10/12 09:01:35;;;;;;;19.95;12.23;;;;;;;8.89;97.54;102390.19;5072986;28;20116;-35
2022/10/12 09:04:19;;;;;;;21.88;13.48;;;;;;;9.06;96.34;102400.81;5073057;28;20029;-35
2022/10/12 09:07:21;;;;;;;22.08;13.00;;;;;;;9.21;96.83;102391.72;5073250;28;20066;-35
2022/10/12 09:09:47;;;;;;;20.30;12.82;;;;;;;9.32;96.80;102395.00;5073336;28;20036;-35
2022/10/12 09:12:31;;;;;;;17.97;12.47;;;;;;;9.33;97.18;102404.78;5073096;28;20024;-35
2022/10/12 09:15:08;;;;;;;22.02;12.98;;;;;;;9.36;96.50;102407.09;5072960;28;20032;-35
2022/10/12 09:17:47;;;;;;;17.58;12.73;;;;;;;9.46;96.51;102407.66;5072871;28;20067;-35
2022/10/12 09:20:18;;;;;;;22.73;12.02;;;;;;;9.50;96.10;102401.72;5072116;28;20064;-35
2022/10/12 09:22:54;;;;;;;20.60;13.80;;;;;;;9.70;95.52;102417.34;5054485;28;20031;-35
2022/10/12 09:25:23;;;;;;;23.83;13.80;;;;;;;9.68;95.20;102420.25;5072763;28;20047;-35
2022/10/12 09:27:50;;;;;;;27.35;14.05;;;;;;;9.72;95.94;102423.44;5072390;28;20032;-35
2022/10/12 09:30:18;;;;;;;24.05;13.90;;;;;;;9.68;95.58;102411.31;5072417;28;20508;-35
2022/10/12 09:33:02;;;;;;;22.50;14.23;;;;;;;9.83;95.98;102409.44;5072418;28;20028;-35
2022/10/12 09:35:27;;;;;;;25.25;14.60;;;;;;;10.04;94.70;102397.84;5072680;28;20024;-35
2022/10/12 09:37:53;;;;;;;26.13;14.90;;;;;;;10.18;93.92;102398.84;5072361;28;20122;-35
2022/10/12 09:40:24;;;;;;;24.25;14.68;;;;;;;10.40;92.94;102397.06;5072232;28;20036;-35
2022/10/12 09:42:51;;;;;;;22.88;14.20;;;;;;;10.57;92.48;102402.00;5072229;28;20560;-35
2022/10/12 09:45:19;;;;;;;20.75;13.63;;;;;;;10.78;91.98;102397.59;5071921;28;20042;-35
2022/10/12 09:48:10;;;;;;;22.15;14.15;;;;;;;10.95;91.07;102404.44;5072503;28;20034;-35
2022/10/12 09:50:49;;;;;;;30.30;15.05;;;;;;;11.05;90.76;102396.81;5072746;28;20463;-35
2022/10/12 09:53:30;;;;;;;28.33;15.07;;;;;;;11.18;89.46;102403.38;5072660;28;20025;-35
2022/10/12 09:56:00;;;;;;;26.45;14.82;;;;;;;11.32;89.72;102388.88;5072011;28;20488;-35
2022/10/12 09:58:28;;;;;;;22.58;13.13;;;;;;;11.43;87.78;102396.47;5072914;28;20128;-35
2022/10/12 10:01:15;;;;;;;21.17;13.55;;;;;;;11.55;88.24;102399.44;5075422;28;20025;-35
2022/10/12 10:03:40;;;;;;;18.75;13.02;;;;;;;11.60;87.29;102402.38;5076520;28;20029;-35
2022/10/12 10:06:06;;;;;;;23.57;13.07;;;;;;;11.66;85.61;102382.59;5075686;28;20366;-35
2022/10/12 10:08:43;;;;;;;19.52;13.10;;;;;;;11.59;85.28;102358.19;5075910;28;20021;-35
2022/10/12 10:11:20;;;;;;;18.83;12.10;;;;;;;11.81;84.07;102377.06;5075589;28;20064;-35
2022/10/12 10:13:49;;;;;;;19.60;12.45;;;;;;;11.92;83.43;102365.66;5076294;28;20338;-34
2022/10/12 10:16:15;;;;;;;22.67;12.30;;;;;;;12.05;83.56;102357.59;5075347;28;20034;-35
2022/10/12 10:18:43;;;;;;;19.35;12.43;;;;;;;12.22;83.49;102352.63;5076117;28;20111;-34
2022/10/12 10:21:11;;;;;;;18.05;12.10;;;;;;;12.37;82.90;102361.41;5075467;28;20060;-34
2022/10/12 10:23:50;;;;;;;17.40;12.35;;;;;;;12.41;83.08;102369.97;5075708;28;20476;-35
2022/10/12 10:26:18;;;;;;;18.90;12.40;;;;;;;12.44;83.37;102383.13;5075978;28;20074;-34
2022/10/12 10:28:45;;;;;;;16.73;11.77;;;;;;;12.41;81.47;102378.13;5076088;28;20021;-35
2022/10/12 10:31:20;;;;;;;19.92;11.88;;;;;;;12.43;82.32;102373.31;5075130;28;20090;-34
2022/10/12 10:34:02;;;;;;;21.58;12.48;;;;;;;12.38;82.63;102370.38;5075803;28;20431;-34
2022/10/12 10:36:28;;;;;;;20.38;12.25;;;;;;;12.49;81.79;102382.50;5075026;28;20029;-35
2022/10/12 10:39:06;;;;;;;19.27;12.30;;;;;;;12.61;81.52;102373.56;5075059;28;20085;-35
2022/10/12 10:41:40;;;;;;;19.90;12.23;;;;;;;12.71;81.06;102362.28;5075409;28;20103;-35
2022/10/12 10:44:32;;;;;;;18.92;12.02;;;;;;;12.87;82.53;102370.00;5075462;28;20029;-35
2022/10/12 10:47:02;;;;;;;20.70;10.57;;;;;;;12.90;79.71;102368.75;5074931;28;20020;-35
2022/10/12 10:49:49;;;;;;;20.45;10.63;;;;;;;12.97;80.89;102366.88;5075219;28;20431;-35
2022/10/12 10:52:30;;;;;;;19.60;11.07;;;;;;;13.01;79.28;102365.41;5075511;28;20064;-35
2022/10/12 10:55:13;;;;;;;17.30;9.13;;;;;;;13.01;77.88;102346.41;5075261;28;20053;-35
2022/10/12 10:58:02;;;;;;;18.70;9.82;;;;;;;13.12;78.11;102347.63;5074614;28;20044;-34
2022/10/12 11:00:31;;;;;;;14.40;9.40;;;;;;;13.24;77.33;102348.69;5074849;28;20044;-34
2022/10/12 11:02:59;;;;;;;27.48;11.07;;;;;;;13.38;76.31;102346.78;5075035;28;20036;-35
2022/10/12 11:05:50;;;;;;;18.23;10.15;;;;;;;13.43;77.79;102338.84;5074479;28;20029;-35
2022/10/12 11:08:21;;;;;;;17.08;9.63;;;;;;;13.51;76.03;102340.47;5074667;28;20091;-35
2022/10/12 11:10:52;;;;;;;13.65;9.18;;;;;;;13.61;75.21;102338.97;5074824;28;20044;-35
2022/10/12 11:13:37;;;;;;;16.80;9.27;;;;;;;13.73;76.34;102322.00;5074723;28;20028;-35
2022/10/12 11:16:13;;;;;;;13.27;9.30;;;;;;;13.75;75.81;102323.44;5074621;28;20052;-35
2022/10/12 11:18:46;;;;;;;15.00;8.73;;;;;;;13.65;74.31;102321.16;5075016;28;20032;-35
2022/10/12 11:21:17;;;;;;;15.15;9.25;;;;;;;13.57;75.87;102318.72;5074158;28;20469;-35
2022/10/12 11:23:52;;;;;;;17.42;10.40;;;;;;;13.51;72.75;102303.25;5074272;28;20150;-35
2022/10/12 11:26:48;;;;;;;15.32;9.52;;;;;;;13.70;73.95;102304.22;5074162;28;20020;-35
2022/10/12 11:29:16;;;;;;;15.63;9.50;;;;;;;13.62;73.16;102301.75;5075026;28;20310;-35
2022/10/12 11:31:50;;;;;;;16.67;9.30;;;;;;;13.57;73.19;102282.56;5074583;28;20404;-35
2022/10/12 11:34:19;;;;;;;15.93;8.55;;;;;;;13.74;72.57;102286.44;5073999;28;20031;-35